sensor_id;sensor_type;location;lat;lon;timestamp;P1;durP1;ratioP1;P2;durP2;ratioP2
80584;SDS011;70137;56.482;9.154;2023-11-19T00:00:05;8.75;;;4.05;;
80584;SDS011;70137;56.482;9.154;2023-11-19T00:02:36;8.43;;;4.20;;
80584;SDS011;70137;56.482;9.154;2023-11-19T00:05:01;9.32;;;4.57;;
80584;SDS011;70137;56.482;9.154;2023-11-19T00:07:27;7.28;;;4.00;;
80584;SDS011;70137;56.482;9.154;2023-11-19T00:09:52;8.95;;;4.43;;
80584;SDS011;70137;56.482;9.154;2023-11-19T00:12:20;9.65;;;4.88;;
80584;SDS011;70137;56.482;9.154;2023-11-19T00:14:45;8.00;;;4.40;;
80584;SDS011;70137;56.482;9.154;2023-11-19T00:17:11;9.43;;;4.50;;
80584;SDS011;70137;56.482;9.154;2023-11-19T00:19:36;7.88;;;4.72;;
80584;SDS011;70137;56.482;9.154;2023-11-19T00:22:02;9.45;;;4.63;;
80584;SDS011;70137;56.482;9.154;2023-11-19T00:24:28;9.15;;;4.95;;
80584;SDS011;70137;56.482;9.154;2023-11-19T00:26:55;7.70;;;4.22;;
80584;SDS011;70137;56.482;9.154;2023-11-19T00:29:21;9.65;;;4.20;;
80584;SDS011;70137;56.482;9.154;2023-11-19T00:31:46;10.43;;;4.45;;
80584;SDS011;70137;56.482;9.154;2023-11-19T00:34:12;10.85;;;4.50;;
80584;SDS011;70137;56.482;9.154;2023-11-19T00:36:38;9.05;;;4.68;;
80584;SDS011;70137;56.482;9.154;2023-11-19T00:39:03;9.57;;;4.53;;
80584;SDS011;70137;56.482;9.154;2023-11-19T00:41:30;10.85;;;5.47;;
80584;SDS011;70137;56.482;9.154;2023-11-19T00:43:55;12.02;;;4.88;;
80584;SDS011;70137;56.482;9.154;2023-11-19T00:46:21;10.35;;;4.70;;
80584;SDS011;70137;56.482;9.154;2023-11-19T00:48:46;11.15;;;5.07;;
80584;SDS011;70137;56.482;9.154;2023-11-19T00:51:12;8.25;;;4.70;;
80584;SDS011;70137;56.482;9.154;2023-11-19T00:53:38;9.93;;;4.70;;
80584;SDS011;70137;56.482;9.154;2023-11-19T00:56:03;11.15;;;5.78;;
80584;SDS011;70137;56.482;9.154;2023-11-19T00:58:28;10.70;;;5.05;;
80584;SDS011;70137;56.482;9.154;2023-11-19T01:00:54;11.30;;;5.25;;
80584;SDS011;70137;56.482;9.154;2023-11-19T01:03:19;10.25;;;4.93;;
80584;SDS011;70137;56.482;9.154;2023-11-19T01:05:45;9.52;;;4.40;;
80584;SDS011;70137;56.482;9.154;2023-11-19T01:08:12;9.50;;;4.55;;
80584;SDS011;70137;56.482;9.154;2023-11-19T01:10:37;12.82;;;5.07;;
80584;SDS011;70137;56.482;9.154;2023-11-19T01:13:03;8.88;;;4.82;;
80584;SDS011;70137;56.482;9.154;2023-11-19T01:15:30;7.75;;;4.38;;
80584;SDS011;70137;56.482;9.154;2023-11-19T01:17:59;9.63;;;4.50;;
80584;SDS011;70137;56.482;9.154;2023-11-19T01:20:24;10.68;;;4.78;;
80584;SDS011;70137;56.482;9.154;2023-11-19T01:22:50;9.25;;;4.80;;
80584;SDS011;70137;56.482;9.154;2023-11-19T01:25:15;10.73;;;5.03;;
80584;SDS011;70137;56.482;9.154;2023-11-19T01:27:41;10.60;;;5.93;;
80584;SDS011;70137;56.482;9.154;2023-11-19T01:30:07;12.27;;;5.25;;
80584;SDS011;70137;56.482;9.154;2023-11-19T01:32:34;13.55;;;6.70;;
80584;SDS011;70137;56.482;9.154;2023-11-19T01:35:01;13.15;;;6.32;;
80584;SDS011;70137;56.482;9.154;2023-11-19T01:37:29;13.45;;;6.03;;
80584;SDS011;70137;56.482;9.154;2023-11-19T01:39:54;13.57;;;5.55;;
80584;SDS011;70137;56.482;9.154;2023-11-19T01:42:19;16.17;;;6.28;;
80584;SDS011;70137;56.482;9.154;2023-11-19T01:44:54;10.63;;;5.85;;
80584;SDS011;70137;56.482;9.154;2023-11-19T01:47:22;11.55;;;6.45;;
80584;SDS011;70137;56.482;9.154;2023-11-19T01:49:49;14.40;;;6.60;;
80584;SDS011;70137;56.482;9.154;2023-11-19T01:52:15;16.70;;;6.75;;
80584;SDS011;70137;56.482;9.154;2023-11-19T01:54:41;11.05;;;6.07;;
80584;SDS011;70137;56.482;9.154;2023-11-19T01:57:06;16.70;;;6.50;;
80584;SDS011;70137;56.482;9.154;2023-11-19T01:59:32;15.18;;;7.18;;
80584;SDS011;70137;56.482;9.154;2023-11-19T02:01:57;11.90;;;6.32;;
80584;SDS011;70137;56.482;9.154;2023-11-19T02:04:23;16.08;;;6.43;;
80584;SDS011;70137;56.482;9.154;2023-11-19T02:06:48;15.10;;;7.13;;
80584;SDS011;70137;56.482;9.154;2023-11-19T02:09:17;12.13;;;6.15;;
80584;SDS011;70137;56.482;9.154;2023-11-19T02:11:44;13.02;;;6.60;;
80584;SDS011;70137;56.482;9.154;2023-11-19T02:14:13;15.65;;;6.88;;
80584;SDS011;70137;56.482;9.154;2023-11-19T02:16:39;13.02;;;6.53;;
80584;SDS011;70137;56.482;9.154;2023-11-19T02:19:04;13.27;;;7.03;;
80584;SDS011;70137;56.482;9.154;2023-11-19T02:21:31;17.73;;;6.93;;
80584;SDS011;70137;56.482;9.154;2023-11-19T02:23:56;12.80;;;6.70;;
80584;SDS011;70137;56.482;9.154;2023-11-19T02:26:25;15.05;;;6.30;;
80584;SDS011;70137;56.482;9.154;2023-11-19T02:28:55;15.48;;;7.15;;
80584;SDS011;70137;56.482;9.154;2023-11-19T02:31:21;16.80;;;7.10;;
80584;SDS011;70137;56.482;9.154;2023-11-19T02:33:48;15.60;;;6.35;;
80584;SDS011;70137;56.482;9.154;2023-11-19T02:36:15;13.95;;;7.10;;
80584;SDS011;70137;56.482;9.154;2023-11-19T02:38:40;13.00;;;6.55;;
80584;SDS011;70137;56.482;9.154;2023-11-19T02:41:08;12.32;;;6.47;;
80584;SDS011;70137;56.482;9.154;2023-11-19T02:43:34;18.40;;;6.82;;
80584;SDS011;70137;56.482;9.154;2023-11-19T02:46:02;12.85;;;6.90;;
80584;SDS011;70137;56.482;9.154;2023-11-19T02:48:31;12.23;;;5.85;;
80584;SDS011;70137;56.482;9.154;2023-11-19T02:50:57;11.48;;;5.65;;
80584;SDS011;70137;56.482;9.154;2023-11-19T02:53:23;15.07;;;6.53;;
80584;SDS011;70137;56.482;9.154;2023-11-19T02:55:49;9.77;;;5.35;;
80584;SDS011;70137;56.482;9.154;2023-11-19T02:58:15;12.23;;;6.57;;
80584;SDS011;70137;56.482;9.154;2023-11-19T03:00:48;12.65;;;6.05;;
80584;SDS011;70137;56.482;9.154;2023-11-19T03:03:22;16.52;;;6.40;;
80584;SDS011;70137;56.482;9.154;2023-11-19T03:05:51;11.30;;;6.07;;
80584;SDS011;70137;56.482;9.154;2023-11-19T03:08:16;13.13;;;5.70;;
80584;SDS011;70137;56.482;9.154;2023-11-19T03:10:42;15.70;;;6.40;;
80584;SDS011;70137;56.482;9.154;2023-11-19T03:13:11;12.88;;;6.55;;
80584;SDS011;70137;56.482;9.154;2023-11-19T03:15:42;16.60;;;7.80;;
80584;SDS011;70137;56.482;9.154;2023-11-19T03:18:07;15.82;;;6.55;;
80584;SDS011;70137;56.482;9.154;2023-11-19T03:20:33;15.65;;;7.07;;
80584;SDS011;70137;56.482;9.154;2023-11-19T03:22:58;14.27;;;6.63;;
80584;SDS011;70137;56.482;9.154;2023-11-19T03:25:25;13.63;;;6.80;;
80584;SDS011;70137;56.482;9.154;2023-11-19T03:27:52;12.93;;;6.95;;
80584;SDS011;70137;56.482;9.154;2023-11-19T03:30:18;13.48;;;6.68;;
80584;SDS011;70137;56.482;9.154;2023-11-19T03:32:44;14.60;;;6.93;;
80584;SDS011;70137;56.482;9.154;2023-11-19T03:35:09;14.18;;;7.00;;
80584;SDS011;70137;56.482;9.154;2023-11-19T03:37:34;11.27;;;6.30;;
80584;SDS011;70137;56.482;9.154;2023-11-19T03:40:00;13.70;;;6.18;;
80584;SDS011;70137;56.482;9.154;2023-11-19T03:42:26;13.15;;;6.57;;
80584;SDS011;70137;56.482;9.154;2023-11-19T03:44:52;13.00;;;6.38;;
80584;SDS011;70137;56.482;9.154;2023-11-19T03:47:18;13.13;;;6.78;;
80584;SDS011;70137;56.482;9.154;2023-11-19T03:49:47;8.07;;;5.15;;
80584;SDS011;70137;56.482;9.154;2023-11-19T03:52:13;16.50;;;7.30;;
80584;SDS011;70137;56.482;9.154;2023-11-19T03:54:39;10.15;;;5.30;;
80584;SDS011;70137;56.482;9.154;2023-11-19T03:57:04;11.93;;;6.25;;
80584;SDS011;70137;56.482;9.154;2023-11-19T03:59:30;12.10;;;6.30;;
80584;SDS011;70137;56.482;9.154;2023-11-19T04:01:55;12.80;;;6.25;;
80584;SDS011;70137;56.482;9.154;2023-11-19T04:04:21;10.85;;;5.78;;
80584;SDS011;70137;56.482;9.154;2023-11-19T04:06:47;14.25;;;6.13;;
80584;SDS011;70137;56.482;9.154;2023-11-19T04:09:12;9.63;;;5.63;;
80584;SDS011;70137;56.482;9.154;2023-11-19T04:11:37;12.30;;;6.22;;
80584;SDS011;70137;56.482;9.154;2023-11-19T04:14:03;11.90;;;5.55;;
80584;SDS011;70137;56.482;9.154;2023-11-19T04:16:28;13.23;;;6.18;;
80584;SDS011;70137;56.482;9.154;2023-11-19T04:18:53;9.32;;;5.43;;
80584;SDS011;70137;56.482;9.154;2023-11-19T04:21:19;12.38;;;5.97;;
80584;SDS011;70137;56.482;9.154;2023-11-19T04:23:44;10.27;;;5.50;;
80584;SDS011;70137;56.482;9.154;2023-11-19T04:26:09;10.32;;;5.40;;
80584;SDS011;70137;56.482;9.154;2023-11-19T04:28:35;10.70;;;5.13;;
80584;SDS011;70137;56.482;9.154;2023-11-19T04:31:00;9.55;;;5.63;;
80584;SDS011;70137;56.482;9.154;2023-11-19T04:33:26;11.13;;;4.93;;
80584;SDS011;70137;56.482;9.154;2023-11-19T04:35:51;10.40;;;4.97;;
80584;SDS011;70137;56.482;9.154;2023-11-19T04:38:16;12.65;;;5.72;;
80584;SDS011;70137;56.482;9.154;2023-11-19T04:40:42;9.20;;;5.30;;
80584;SDS011;70137;56.482;9.154;2023-11-19T04:43:07;8.77;;;5.28;;
80584;SDS011;70137;56.482;9.154;2023-11-19T04:45:32;9.60;;;5.00;;
80584;SDS011;70137;56.482;9.154;2023-11-19T04:47:58;11.25;;;5.40;;
80584;SDS011;70137;56.482;9.154;2023-11-19T04:50:23;12.32;;;6.05;;
80584;SDS011;70137;56.482;9.154;2023-11-19T04:52:50;9.65;;;5.03;;
80584;SDS011;70137;56.482;9.154;2023-11-19T04:55:16;8.48;;;4.85;;
80584;SDS011;70137;56.482;9.154;2023-11-19T04:57:41;9.43;;;4.60;;
80584;SDS011;70137;56.482;9.154;2023-11-19T05:00:08;8.90;;;4.80;;
80584;SDS011;70137;56.482;9.154;2023-11-19T05:02:36;8.63;;;4.43;;
80584;SDS011;70137;56.482;9.154;2023-11-19T05:05:01;7.90;;;4.32;;
80584;SDS011;70137;56.482;9.154;2023-11-19T05:07:28;6.10;;;3.42;;
80584;SDS011;70137;56.482;9.154;2023-11-19T05:09:54;7.20;;;3.92;;
80584;SDS011;70137;56.482;9.154;2023-11-19T05:12:19;12.05;;;4.22;;
80584;SDS011;70137;56.482;9.154;2023-11-19T05:14:45;8.40;;;4.00;;
80584;SDS011;70137;56.482;9.154;2023-11-19T05:17:14;8.10;;;4.03;;
80584;SDS011;70137;56.482;9.154;2023-11-19T05:19:40;9.95;;;4.32;;
80584;SDS011;70137;56.482;9.154;2023-11-19T05:22:05;6.72;;;3.85;;
80584;SDS011;70137;56.482;9.154;2023-11-19T05:24:31;6.20;;;4.38;;
80584;SDS011;70137;56.482;9.154;2023-11-19T05:26:56;7.20;;;3.97;;
80584;SDS011;70137;56.482;9.154;2023-11-19T05:29:23;6.47;;;3.80;;
80584;SDS011;70137;56.482;9.154;2023-11-19T05:31:48;7.10;;;4.00;;
80584;SDS011;70137;56.482;9.154;2023-11-19T05:34:14;6.18;;;3.65;;
80584;SDS011;70137;56.482;9.154;2023-11-19T05:36:40;5.70;;;3.90;;
80584;SDS011;70137;56.482;9.154;2023-11-19T05:39:05;6.18;;;3.60;;
80584;SDS011;70137;56.482;9.154;2023-11-19T05:41:30;4.55;;;3.22;;
80584;SDS011;70137;56.482;9.154;2023-11-19T05:43:56;6.30;;;3.55;;
80584;SDS011;70137;56.482;9.154;2023-11-19T05:46:21;6.20;;;3.55;;
80584;SDS011;70137;56.482;9.154;2023-11-19T05:48:47;5.75;;;3.40;;
80584;SDS011;70137;56.482;9.154;2023-11-19T05:51:13;5.70;;;3.33;;
80584;SDS011;70137;56.482;9.154;2023-11-19T05:53:40;6.25;;;3.15;;
80584;SDS011;70137;56.482;9.154;2023-11-19T05:56:05;4.85;;;2.90;;
80584;SDS011;70137;56.482;9.154;2023-11-19T05:58:34;3.28;;;2.58;;
80584;SDS011;70137;56.482;9.154;2023-11-19T06:01:00;5.00;;;2.83;;
80584;SDS011;70137;56.482;9.154;2023-11-19T06:03:26;5.43;;;2.70;;
80584;SDS011;70137;56.482;9.154;2023-11-19T06:05:52;6.10;;;2.95;;
80584;SDS011;70137;56.482;9.154;2023-11-19T06:08:19;5.13;;;2.75;;
80584;SDS011;70137;56.482;9.154;2023-11-19T06:10:45;4.22;;;2.60;;
80584;SDS011;70137;56.482;9.154;2023-11-19T06:13:12;3.67;;;2.45;;
80584;SDS011;70137;56.482;9.154;2023-11-19T06:15:40;3.85;;;2.60;;
80584;SDS011;70137;56.482;9.154;2023-11-19T06:18:06;3.80;;;2.60;;
80584;SDS011;70137;56.482;9.154;2023-11-19T06:20:32;4.57;;;2.80;;
80584;SDS011;70137;56.482;9.154;2023-11-19T06:22:58;3.90;;;3.10;;
80584;SDS011;70137;56.482;9.154;2023-11-19T06:25:23;3.22;;;2.30;;
80584;SDS011;70137;56.482;9.154;2023-11-19T06:27:49;5.78;;;2.65;;
80584;SDS011;70137;56.482;9.154;2023-11-19T06:30:15;4.72;;;2.42;;
80584;SDS011;70137;56.482;9.154;2023-11-19T06:32:41;3.05;;;2.47;;
80584;SDS011;70137;56.482;9.154;2023-11-19T06:35:07;4.25;;;2.42;;
80584;SDS011;70137;56.482;9.154;2023-11-19T06:37:32;6.00;;;3.13;;
80584;SDS011;70137;56.482;9.154;2023-11-19T06:39:58;3.50;;;2.55;;
80584;SDS011;70137;56.482;9.154;2023-11-19T06:42:24;3.53;;;2.30;;
80584;SDS011;70137;56.482;9.154;2023-11-19T06:44:49;3.75;;;2.10;;
80584;SDS011;70137;56.482;9.154;2023-11-19T06:47:14;2.92;;;2.33;;
80584;SDS011;70137;56.482;9.154;2023-11-19T06:49:40;3.55;;;2.38;;
80584;SDS011;70137;56.482;9.154;2023-11-19T06:52:05;2.20;;;1.90;;
80584;SDS011;70137;56.482;9.154;2023-11-19T06:54:30;6.45;;;2.70;;
80584;SDS011;70137;56.482;9.154;2023-11-19T06:56:56;2.45;;;1.80;;
80584;SDS011;70137;56.482;9.154;2023-11-19T06:59:22;2.47;;;1.83;;
80584;SDS011;70137;56.482;9.154;2023-11-19T07:01:48;1.98;;;1.50;;
80584;SDS011;70137;56.482;9.154;2023-11-19T07:04:13;2.03;;;1.40;;
80584;SDS011;70137;56.482;9.154;2023-11-19T07:06:39;1.65;;;1.35;;
80584;SDS011;70137;56.482;9.154;2023-11-19T07:09:09;1.85;;;1.50;;
80584;SDS011;70137;56.482;9.154;2023-11-19T07:11:40;3.75;;;1.48;;
80584;SDS011;70137;56.482;9.154;2023-11-19T07:14:07;1.17;;;1.05;;
80584;SDS011;70137;56.482;9.154;2023-11-19T07:16:33;2.30;;;1.50;;
80584;SDS011;70137;56.482;9.154;2023-11-19T07:19:02;2.33;;;1.10;;
80584;SDS011;70137;56.482;9.154;2023-11-19T07:21:28;2.88;;;1.52;;
80584;SDS011;70137;56.482;9.154;2023-11-19T07:23:54;2.05;;;1.13;;
80584;SDS011;70137;56.482;9.154;2023-11-19T07:26:22;3.13;;;1.50;;
80584;SDS011;70137;56.482;9.154;2023-11-19T07:28:48;2.97;;;1.60;;
80584;SDS011;70137;56.482;9.154;2023-11-19T07:31:14;3.88;;;1.35;;
80584;SDS011;70137;56.482;9.154;2023-11-19T07:33:40;3.10;;;1.23;;
80584;SDS011;70137;56.482;9.154;2023-11-19T07:36:09;2.90;;;1.20;;
80584;SDS011;70137;56.482;9.154;2023-11-19T07:38:35;1.58;;;1.17;;
80584;SDS011;70137;56.482;9.154;2023-11-19T07:41:00;1.98;;;1.35;;
80584;SDS011;70137;56.482;9.154;2023-11-19T07:43:26;3.47;;;1.27;;
80584;SDS011;70137;56.482;9.154;2023-11-19T07:45:52;2.05;;;1.40;;
80584;SDS011;70137;56.482;9.154;2023-11-19T07:48:17;1.48;;;1.00;;
80584;SDS011;70137;56.482;9.154;2023-11-19T07:50:47;1.35;;;1.10;;
80584;SDS011;70137;56.482;9.154;2023-11-19T07:53:15;1.88;;;1.08;;
80584;SDS011;70137;56.482;9.154;2023-11-19T07:55:41;2.17;;;1.30;;
80584;SDS011;70137;56.482;9.154;2023-11-19T07:58:06;1.45;;;0.98;;
80584;SDS011;70137;56.482;9.154;2023-11-19T08:00:31;1.75;;;0.95;;
80584;SDS011;70137;56.482;9.154;2023-11-19T08:02:56;2.33;;;1.02;;
80584;SDS011;70137;56.482;9.154;2023-11-19T08:05:22;1.58;;;0.95;;
80584;SDS011;70137;56.482;9.154;2023-11-19T08:07:49;0.95;;;0.90;;
80584;SDS011;70137;56.482;9.154;2023-11-19T08:10:17;2.22;;;1.20;;
80584;SDS011;70137;56.482;9.154;2023-11-19T08:12:42;1.65;;;0.70;;
80584;SDS011;70137;56.482;9.154;2023-11-19T08:15:07;1.38;;;0.80;;
80584;SDS011;70137;56.482;9.154;2023-11-19T08:17:34;1.63;;;0.90;;
80584;SDS011;70137;56.482;9.154;2023-11-19T08:19:59;1.42;;;0.70;;
80584;SDS011;70137;56.482;9.154;2023-11-19T08:22:25;1.27;;;0.90;;
80584;SDS011;70137;56.482;9.154;2023-11-19T08:24:51;7.57;;;0.88;;
80584;SDS011;70137;56.482;9.154;2023-11-19T08:27:17;1.85;;;0.90;;
80584;SDS011;70137;56.482;9.154;2023-11-19T08:29:42;1.67;;;0.70;;
80584;SDS011;70137;56.482;9.154;2023-11-19T08:32:07;2.00;;;0.80;;
80584;SDS011;70137;56.482;9.154;2023-11-19T08:34:33;1.90;;;0.70;;
80584;SDS011;70137;56.482;9.154;2023-11-19T08:36:59;2.60;;;0.65;;
80584;SDS011;70137;56.482;9.154;2023-11-19T08:39:24;2.50;;;0.70;;
80584;SDS011;70137;56.482;9.154;2023-11-19T08:41:50;5.30;;;2.03;;
80584;SDS011;70137;56.482;9.154;2023-11-19T08:44:16;1.83;;;1.05;;
80584;SDS011;70137;56.482;9.154;2023-11-19T08:46:48;7.03;;;2.33;;
80584;SDS011;70137;56.482;9.154;2023-11-19T08:49:14;4.60;;;0.90;;
80584;SDS011;70137;56.482;9.154;2023-11-19T08:51:39;3.03;;;0.90;;
80584;SDS011;70137;56.482;9.154;2023-11-19T08:54:04;1.50;;;0.80;;
80584;SDS011;70137;56.482;9.154;2023-11-19T08:56:30;1.27;;;0.70;;
80584;SDS011;70137;56.482;9.154;2023-11-19T08:58:57;1.38;;;0.60;;
80584;SDS011;70137;56.482;9.154;2023-11-19T09:01:23;0.80;;;0.60;;
80584;SDS011;70137;56.482;9.154;2023-11-19T09:03:49;2.45;;;0.80;;
80584;SDS011;70137;56.482;9.154;2023-11-19T09:06:15;3.60;;;0.70;;
80584;SDS011;70137;56.482;9.154;2023-11-19T09:08:41;1.27;;;0.63;;
80584;SDS011;70137;56.482;9.154;2023-11-19T09:11:07;0.95;;;0.70;;
80584;SDS011;70137;56.482;9.154;2023-11-19T09:13:34;3.28;;;0.90;;
80584;SDS011;70137;56.482;9.154;2023-11-19T09:15:59;2.78;;;0.65;;
80584;SDS011;70137;56.482;9.154;2023-11-19T09:18:28;1.02;;;0.75;;
80584;SDS011;70137;56.482;9.154;2023-11-19T09:20:57;1.33;;;0.70;;
80584;SDS011;70137;56.482;9.154;2023-11-19T09:23:22;2.35;;;0.70;;
80584;SDS011;70137;56.482;9.154;2023-11-19T09:25:49;2.00;;;0.70;;
80584;SDS011;70137;56.482;9.154;2023-11-19T09:28:15;1.35;;;0.80;;
80584;SDS011;70137;56.482;9.154;2023-11-19T09:30:40;1.00;;;0.80;;
80584;SDS011;70137;56.482;9.154;2023-11-19T09:33:05;1.38;;;0.90;;
80584;SDS011;70137;56.482;9.154;2023-11-19T09:35:31;1.55;;;0.70;;
80584;SDS011;70137;56.482;9.154;2023-11-19T09:37:56;1.30;;;0.75;;
80584;SDS011;70137;56.482;9.154;2023-11-19T09:40:22;1.30;;;0.80;;
80584;SDS011;70137;56.482;9.154;2023-11-19T09:42:48;2.53;;;0.80;;
80584;SDS011;70137;56.482;9.154;2023-11-19T09:45:14;1.23;;;0.70;;
80584;SDS011;70137;56.482;9.154;2023-11-19T09:47:44;0.85;;;0.65;;
80584;SDS011;70137;56.482;9.154;2023-11-19T09:50:20;1.10;;;0.60;;
80584;SDS011;70137;56.482;9.154;2023-11-19T09:52:46;2.17;;;0.63;;
80584;SDS011;70137;56.482;9.154;2023-11-19T09:55:12;0.95;;;0.47;;
80584;SDS011;70137;56.482;9.154;2023-11-19T09:57:38;2.05;;;0.60;;
80584;SDS011;70137;56.482;9.154;2023-11-19T10:00:04;1.90;;;0.50;;
80584;SDS011;70137;56.482;9.154;2023-11-19T10:02:32;1.63;;;0.43;;
80584;SDS011;70137;56.482;9.154;2023-11-19T10:05:00;2.72;;;0.68;;
80584;SDS011;70137;56.482;9.154;2023-11-19T10:07:30;1.55;;;0.70;;
80584;SDS011;70137;56.482;9.154;2023-11-19T10:09:57;1.83;;;0.50;;
80584;SDS011;70137;56.482;9.154;2023-11-19T10:12:25;0.63;;;0.45;;
80584;SDS011;70137;56.482;9.154;2023-11-19T10:14:51;1.17;;;0.60;;
80584;SDS011;70137;56.482;9.154;2023-11-19T10:17:17;1.58;;;0.70;;
80584;SDS011;70137;56.482;9.154;2023-11-19T10:19:44;0.90;;;0.60;;
80584;SDS011;70137;56.482;9.154;2023-11-19T10:22:09;1.05;;;0.70;;
80584;SDS011;70137;56.482;9.154;2023-11-19T10:24:36;1.23;;;0.50;;
80584;SDS011;70137;56.482;9.154;2023-11-19T10:27:04;3.00;;;0.60;;
80584;SDS011;70137;56.482;9.154;2023-11-19T10:29:35;0.93;;;0.70;;
80584;SDS011;70137;56.482;9.154;2023-11-19T10:32:04;0.77;;;0.60;;
80584;SDS011;70137;56.482;9.154;2023-11-19T10:34:30;1.88;;;0.60;;
80584;SDS011;70137;56.482;9.154;2023-11-19T10:36:55;1.45;;;0.80;;
80584;SDS011;70137;56.482;9.154;2023-11-19T10:39:20;1.83;;;0.60;;
80584;SDS011;70137;56.482;9.154;2023-11-19T10:41:46;0.77;;;0.60;;
80584;SDS011;70137;56.482;9.154;2023-11-19T10:44:12;3.88;;;0.80;;
80584;SDS011;70137;56.482;9.154;2023-11-19T10:46:38;1.58;;;0.60;;
80584;SDS011;70137;56.482;9.154;2023-11-19T10:49:07;3.15;;;0.70;;
80584;SDS011;70137;56.482;9.154;2023-11-19T10:51:33;2.35;;;0.82;;
80584;SDS011;70137;56.482;9.154;2023-11-19T10:54:01;2.35;;;0.70;;
80584;SDS011;70137;56.482;9.154;2023-11-19T10:56:30;1.83;;;0.80;;
80584;SDS011;70137;56.482;9.154;2023-11-19T10:58:57;2.38;;;0.60;;
80584;SDS011;70137;56.482;9.154;2023-11-19T11:01:25;1.52;;;0.70;;
80584;SDS011;70137;56.482;9.154;2023-11-19T11:03:55;2.28;;;0.73;;
80584;SDS011;70137;56.482;9.154;2023-11-19T11:06:24;1.65;;;0.82;;
80584;SDS011;70137;56.482;9.154;2023-11-19T11:08:52;1.80;;;0.70;;
80584;SDS011;70137;56.482;9.154;2023-11-19T11:11:19;3.08;;;0.70;;
80584;SDS011;70137;56.482;9.154;2023-11-19T11:13:46;1.63;;;0.70;;
80584;SDS011;70137;56.482;9.154;2023-11-19T11:16:14;1.92;;;0.80;;
80584;SDS011;70137;56.482;9.154;2023-11-19T11:18:40;2.20;;;0.70;;
80584;SDS011;70137;56.482;9.154;2023-11-19T11:21:09;2.92;;;0.60;;
80584;SDS011;70137;56.482;9.154;2023-11-19T11:23:56;0.82;;;0.70;;
80584;SDS011;70137;56.482;9.154;2023-11-19T11:29:35;1.83;;;0.75;;
80584;SDS011;70137;56.482;9.154;2023-11-19T11:32:20;1.15;;;0.60;;
80584;SDS011;70137;56.482;9.154;2023-11-19T11:35:12;1.40;;;0.60;;
80584;SDS011;70137;56.482;9.154;2023-11-19T11:37:50;0.80;;;0.52;;
80584;SDS011;70137;56.482;9.154;2023-11-19T11:40:25;1.83;;;0.82;;
80584;SDS011;70137;56.482;9.154;2023-11-19T11:42:51;0.80;;;0.70;;
80584;SDS011;70137;56.482;9.154;2023-11-19T11:45:17;1.42;;;0.73;;
80584;SDS011;70137;56.482;9.154;2023-11-19T11:50:19;0.75;;;0.60;;
80584;SDS011;70137;56.482;9.154;2023-11-19T11:55:26;3.05;;;0.60;;
80584;SDS011;70137;56.482;9.154;2023-11-19T11:58:05;1.05;;;0.80;;
80584;SDS011;70137;56.482;9.154;2023-11-19T12:00:37;0.70;;;0.60;;
80584;SDS011;70137;56.482;9.154;2023-11-19T12:03:04;0.60;;;0.60;;
80584;SDS011;70137;56.482;9.154;2023-11-19T12:05:32;0.90;;;0.60;;
80584;SDS011;70137;56.482;9.154;2023-11-19T12:08:03;1.05;;;0.80;;
80584;SDS011;70137;56.482;9.154;2023-11-19T12:10:32;1.70;;;0.70;;
80584;SDS011;70137;56.482;9.154;2023-11-19T12:13:03;1.67;;;0.80;;
80584;SDS011;70137;56.482;9.154;2023-11-19T12:15:32;2.35;;;1.05;;
80584;SDS011;70137;56.482;9.154;2023-11-19T12:17:57;1.83;;;0.80;;
80584;SDS011;70137;56.482;9.154;2023-11-19T12:20:24;2.60;;;0.80;;
80584;SDS011;70137;56.482;9.154;2023-11-19T12:22:51;0.98;;;0.80;;
80584;SDS011;70137;56.482;9.154;2023-11-19T12:25:18;0.60;;;0.60;;
80584;SDS011;70137;56.482;9.154;2023-11-19T12:27:45;1.98;;;0.90;;
80584;SDS011;70137;56.482;9.154;2023-11-19T12:30:14;1.10;;;0.55;;
80584;SDS011;70137;56.482;9.154;2023-11-19T12:32:43;0.63;;;0.63;;
80584;SDS011;70137;56.482;9.154;2023-11-19T12:35:10;2.47;;;1.02;;
80584;SDS011;70137;56.482;9.154;2023-11-19T12:40:13;1.55;;;0.77;;
80584;SDS011;70137;56.482;9.154;2023-11-19T12:42:48;0.80;;;0.60;;
80584;SDS011;70137;56.482;9.154;2023-11-19T12:45:15;1.10;;;0.70;;
80584;SDS011;70137;56.482;9.154;2023-11-19T12:47:42;0.82;;;0.60;;
80584;SDS011;70137;56.482;9.154;2023-11-19T12:50:08;2.65;;;0.70;;
80584;SDS011;70137;56.482;9.154;2023-11-19T12:52:35;1.27;;;0.70;;
80584;SDS011;70137;56.482;9.154;2023-11-19T12:55:05;0.98;;;0.60;;
80584;SDS011;70137;56.482;9.154;2023-11-19T12:57:50;1.95;;;0.60;;
80584;SDS011;70137;56.482;9.154;2023-11-19T13:00:19;1.20;;;0.68;;
80584;SDS011;70137;56.482;9.154;2023-11-19T13:02:51;2.45;;;0.55;;
80584;SDS011;70137;56.482;9.154;2023-11-19T13:10:31;0.63;;;0.60;;
80584;SDS011;70137;56.482;9.154;2023-11-19T13:15:26;1.30;;;0.65;;
80584;SDS011;70137;56.482;9.154;2023-11-19T13:17:51;4.10;;;0.80;;
80584;SDS011;70137;56.482;9.154;2023-11-19T13:20:17;0.90;;;0.52;;
80584;SDS011;70137;56.482;9.154;2023-11-19T13:23:02;1.15;;;0.75;;
80584;SDS011;70137;56.482;9.154;2023-11-19T13:25:29;1.05;;;0.70;;
80584;SDS011;70137;56.482;9.154;2023-11-19T13:27:55;0.70;;;0.60;;
80584;SDS011;70137;56.482;9.154;2023-11-19T13:30:21;1.85;;;0.77;;
80584;SDS011;70137;56.482;9.154;2023-11-19T13:32:47;2.00;;;0.80;;
80584;SDS011;70137;56.482;9.154;2023-11-19T13:35:13;2.08;;;0.70;;
80584;SDS011;70137;56.482;9.154;2023-11-19T13:37:39;1.38;;;0.63;;
80584;SDS011;70137;56.482;9.154;2023-11-19T13:40:05;0.73;;;0.57;;
80584;SDS011;70137;56.482;9.154;2023-11-19T13:42:32;2.13;;;0.88;;
80584;SDS011;70137;56.482;9.154;2023-11-19T13:44:57;2.42;;;0.70;;
80584;SDS011;70137;56.482;9.154;2023-11-19T13:47:22;6.22;;;1.13;;
80584;SDS011;70137;56.482;9.154;2023-11-19T13:49:48;3.35;;;0.73;;
80584;SDS011;70137;56.482;9.154;2023-11-19T13:52:14;2.58;;;0.88;;
80584;SDS011;70137;56.482;9.154;2023-11-19T13:54:39;1.23;;;0.70;;
80584;SDS011;70137;56.482;9.154;2023-11-19T13:57:06;3.08;;;1.00;;
80584;SDS011;70137;56.482;9.154;2023-11-19T13:59:31;0.85;;;0.85;;
80584;SDS011;70137;56.482;9.154;2023-11-19T14:01:59;3.63;;;1.08;;
80584;SDS011;70137;56.482;9.154;2023-11-19T14:04:25;1.75;;;1.10;;
80584;SDS011;70137;56.482;9.154;2023-11-19T14:06:50;2.15;;;1.30;;
80584;SDS011;70137;56.482;9.154;2023-11-19T14:09:16;1.50;;;1.13;;
80584;SDS011;70137;56.482;9.154;2023-11-19T14:11:42;1.80;;;1.10;;
80584;SDS011;70137;56.482;9.154;2023-11-19T14:14:08;1.83;;;1.20;;
80584;SDS011;70137;56.482;9.154;2023-11-19T14:16:33;2.10;;;1.33;;
80584;SDS011;70137;56.482;9.154;2023-11-19T14:18:59;1.40;;;1.30;;
80584;SDS011;70137;56.482;9.154;2023-11-19T14:21:24;2.08;;;1.13;;
80584;SDS011;70137;56.482;9.154;2023-11-19T14:23:51;3.03;;;1.10;;
80584;SDS011;70137;56.482;9.154;2023-11-19T14:26:17;2.35;;;1.25;;
80584;SDS011;70137;56.482;9.154;2023-11-19T14:28:42;2.22;;;1.42;;
80584;SDS011;70137;56.482;9.154;2023-11-19T14:31:08;1.38;;;0.82;;
80584;SDS011;70137;56.482;9.154;2023-11-19T14:33:33;1.08;;;0.90;;
80584;SDS011;70137;56.482;9.154;2023-11-19T14:36:00;2.17;;;1.30;;
80584;SDS011;70137;56.482;9.154;2023-11-19T14:38:26;1.88;;;1.02;;
80584;SDS011;70137;56.482;9.154;2023-11-19T14:40:51;1.48;;;1.15;;
80584;SDS011;70137;56.482;9.154;2023-11-19T14:43:17;1.08;;;0.98;;
80584;SDS011;70137;56.482;9.154;2023-11-19T14:45:42;2.03;;;1.10;;
80584;SDS011;70137;56.482;9.154;2023-11-19T14:48:08;2.65;;;1.40;;
80584;SDS011;70137;56.482;9.154;2023-11-19T14:50:33;4.75;;;1.55;;
80584;SDS011;70137;56.482;9.154;2023-11-19T14:52:58;5.13;;;1.90;;
80584;SDS011;70137;56.482;9.154;2023-11-19T14:55:24;3.95;;;2.30;;
80584;SDS011;70137;56.482;9.154;2023-11-19T14:57:49;3.20;;;1.98;;
80584;SDS011;70137;56.482;9.154;2023-11-19T15:00:16;5.47;;;2.47;;